sensor_id;sensor_type;location;lat;lon;timestamp;pressure;altitude;pressure_sealevel;temperature;humidity
50859;BME280;36826;47.514;19.056;2023-01-27T00:00:12;100211.13;;;6.12;66.11
50859;BME280;36826;47.514;19.056;2023-01-27T00:02:39;100207.56;;;6.88;65.04
50859;BME280;36826;47.514;19.056;2023-01-27T00:05:05;100203.91;;;6.65;65.41
50859;BME280;36826;47.514;19.056;2023-01-27T00:07:30;100201.44;;;6.11;66.61
50859;BME280;36826;47.514;19.056;2023-01-27T00:09:55;100205.88;;;6.24;65.53
50859;BME280;36826;47.514;19.056;2023-01-27T00:12:22;100208.41;;;5.87;67.14
50859;BME280;36826;47.514;19.056;2023-01-27T00:15:06;100198.63;;;6.89;65.13
50859;BME280;36826;47.514;19.056;2023-01-27T00:17:32;100206.38;;;6.55;65.97
50859;BME280;36826;47.514;19.056;2023-01-27T00:19:58;100206.22;;;6.69;65.92
50859;BME280;36826;47.514;19.056;2023-01-27T00:22:23;100197.13;;;6.48;65.55
50859;BME280;36826;47.514;19.056;2023-01-27T00:25:07;100195.47;;;7.08;64.79
50859;BME280;36826;47.514;19.056;2023-01-27T00:27:34;100190.41;;;6.92;64.75
50859;BME280;36826;47.514;19.056;2023-01-27T00:29:59;100188.13;;;6.74;64.86
50859;BME280;36826;47.514;19.056;2023-01-27T00:32:24;100190.97;;;7.09;64.19
50859;BME280;36826;47.514;19.056;2023-01-27T00:35:08;100194.44;;;7.22;64.54
50859;BME280;36826;47.514;19.056;2023-01-27T00:37:35;100197.06;;;6.73;64.46
50859;BME280;36826;47.514;19.056;2023-01-27T00:40:00;100200.75;;;6.34;65.88
50859;BME280;36826;47.514;19.056;2023-01-27T00:42:25;100206.47;;;7.03;65.54
50859;BME280;36826;47.514;19.056;2023-01-27T00:44:50;100196.09;;;7.12;65.77
50859;BME280;36826;47.514;19.056;2023-01-27T00:47:34;100193.38;;;7.00;65.19
50859;BME280;36826;47.514;19.056;2023-01-27T00:49:59;100194.41;;;6.10;66.98
50859;BME280;36826;47.514;19.056;2023-01-27T00:52:25;100196.38;;;6.45;66.72
50859;BME280;36826;47.514;19.056;2023-01-27T00:54:50;100184.78;;;7.32;65.05
50859;BME280;36826;47.514;19.056;2023-01-27T00:57:15;100194.25;;;7.12;64.84
50859;BME280;36826;47.514;19.056;2023-01-27T00:59:41;100191.38;;;7.15;64.27
50859;BME280;36826;47.514;19.056;2023-01-27T01:02:08;100191.56;;;7.25;64.47
50859;BME280;36826;47.514;19.056;2023-01-27T01:04:33;100194.97;;;6.66;65.03
50859;BME280;36826;47.514;19.056;2023-01-27T01:06:58;100192.06;;;6.32;66.69
50859;BME280;36826;47.514;19.056;2023-01-27T01:09:23;100193.13;;;6.79;64.82
50859;BME280;36826;47.514;19.056;2023-01-27T01:11:49;100195.16;;;6.75;65.21
50859;BME280;36826;47.514;19.056;2023-01-27T01:14:14;100188.44;;;7.07;64.57
50859;BME280;36826;47.514;19.056;2023-01-27T01:16:40;100185.81;;;6.57;66.66
50859;BME280;36826;47.514;19.056;2023-01-27T01:19:05;100183.66;;;6.99;65.45
50859;BME280;36826;47.514;19.056;2023-01-27T01:21:30;100179.72;;;7.05;66.20
50859;BME280;36826;47.514;19.056;2023-01-27T01:23:56;100181.50;;;7.04;66.27
50859;BME280;36826;47.514;19.056;2023-01-27T01:26:21;100185.31;;;7.37;65.52
50859;BME280;36826;47.514;19.056;2023-01-27T01:28:46;100185.53;;;7.70;64.75
50859;BME280;36826;47.514;19.056;2023-01-27T01:31:13;100186.31;;;7.24;65.69
50859;BME280;36826;47.514;19.056;2023-01-27T01:33:40;100184.91;;;7.66;64.60
50859;BME280;36826;47.514;19.056;2023-01-27T01:36:05;100179.72;;;7.76;64.58
50859;BME280;36826;47.514;19.056;2023-01-27T01:38:31;100177.41;;;7.83;64.40
50859;BME280;36826;47.514;19.056;2023-01-27T01:40:57;100173.00;;;7.59;64.64
50859;BME280;36826;47.514;19.056;2023-01-27T01:43:22;100178.72;;;7.30;64.88
50859;BME280;36826;47.514;19.056;2023-01-27T01:45:48;100181.78;;;6.51;66.43
50859;BME280;36826;47.514;19.056;2023-01-27T01:50:41;100171.34;;;6.85;65.94
50859;BME280;36826;47.514;19.056;2023-01-27T01:53:09;100167.50;;;6.89;66.06
50859;BME280;36826;47.514;19.056;2023-01-27T01:55:36;100179.75;;;6.55;66.49
50859;BME280;36826;47.514;19.056;2023-01-27T01:58:02;100174.00;;;6.48;66.33
50859;BME280;36826;47.514;19.056;2023-01-27T02:00:28;100172.97;;;6.51;65.93
50859;BME280;36826;47.514;19.056;2023-01-27T02:02:54;100178.50;;;6.85;65.45
50859;BME280;36826;47.514;19.056;2023-01-27T02:05:29;100168.16;;;6.56;65.20
50859;BME280;36826;47.514;19.056;2023-01-27T02:08:00;100159.88;;;7.09;64.00
50859;BME280;36826;47.514;19.056;2023-01-27T02:10:26;100167.16;;;6.94;63.81
50859;BME280;36826;47.514;19.056;2023-01-27T02:12:52;100160.47;;;6.88;62.98
50859;BME280;36826;47.514;19.056;2023-01-27T02:15:17;100154.94;;;7.16;62.62
50859;BME280;36826;47.514;19.056;2023-01-27T02:17:43;100148.88;;;7.14;62.52
50859;BME280;36826;47.514;19.056;2023-01-27T02:28:01;100151.59;;;6.77;62.71
50859;BME280;36826;47.514;19.056;2023-01-27T02:30:27;100149.44;;;6.82;62.40
50859;BME280;36826;47.514;19.056;2023-01-27T02:32:52;100143.38;;;6.80;62.34
50859;BME280;36826;47.514;19.056;2023-01-27T02:35:26;100148.69;;;6.80;61.92
50859;BME280;36826;47.514;19.056;2023-01-27T02:37:53;100131.22;;;7.24;60.82
50859;BME280;36826;47.514;19.056;2023-01-27T02:40:19;100124.31;;;6.73;60.99
50859;BME280;36826;47.514;19.056;2023-01-27T02:42:45;100123.13;;;6.53;61.47
50859;BME280;36826;47.514;19.056;2023-01-27T02:45:11;100116.69;;;6.93;60.75
50859;BME280;36826;47.514;19.056;2023-01-27T02:47:36;100120.03;;;6.22;61.83
50859;BME280;36826;47.514;19.056;2023-01-27T02:50:01;100115.88;;;6.31;61.71
50859;BME280;36826;47.514;19.056;2023-01-27T02:52:27;100120.97;;;5.95;63.33
50859;BME280;36826;47.514;19.056;2023-01-27T02:54:52;100109.50;;;6.57;61.85
50859;BME280;36826;47.514;19.056;2023-01-27T02:57:17;100106.44;;;6.51;61.46
50859;BME280;36826;47.514;19.056;2023-01-27T02:59:43;100107.19;;;6.77;60.84
50859;BME280;36826;47.514;19.056;2023-01-27T03:02:08;100106.28;;;6.28;61.65
50859;BME280;36826;47.514;19.056;2023-01-27T03:04:36;100104.28;;;6.56;61.44
50859;BME280;36826;47.514;19.056;2023-01-27T03:07:03;100097.25;;;6.55;61.08
50859;BME280;36826;47.514;19.056;2023-01-27T03:09:28;100101.94;;;6.51;61.16
50859;BME280;36826;47.514;19.056;2023-01-27T03:11:53;100100.53;;;6.58;60.44
50859;BME280;36826;47.514;19.056;2023-01-27T03:14:37;100094.66;;;6.42;60.87
50859;BME280;36826;47.514;19.056;2023-01-27T03:17:21;100098.06;;;6.68;60.19
50859;BME280;36826;47.514;19.056;2023-01-27T03:20:05;100088.97;;;5.96;61.46
50859;BME280;36826;47.514;19.056;2023-01-27T03:22:31;100099.41;;;6.50;60.53
50859;BME280;36826;47.514;19.056;2023-01-27T03:24:56;100084.09;;;6.40;60.37
50859;BME280;36826;47.514;19.056;2023-01-27T03:27:21;100089.00;;;6.47;60.85
50859;BME280;36826;47.514;19.056;2023-01-27T03:29:47;100091.13;;;6.41;60.07
50859;BME280;36826;47.514;19.056;2023-01-27T03:32:31;100083.19;;;6.53;60.59
50859;BME280;36826;47.514;19.056;2023-01-27T03:34:57;100082.81;;;6.46;60.51
50859;BME280;36826;47.514;19.056;2023-01-27T03:37:23;100082.75;;;6.59;60.52
50859;BME280;36826;47.514;19.056;2023-01-27T03:40:07;100081.63;;;6.74;60.30
50859;BME280;36826;47.514;19.056;2023-01-27T03:42:51;100076.66;;;6.45;60.13
50859;BME280;36826;47.514;19.056;2023-01-27T03:45:35;100077.25;;;6.25;60.39
50859;BME280;36826;47.514;19.056;2023-01-27T03:48:19;100077.69;;;5.93;61.53
50859;BME280;36826;47.514;19.056;2023-01-27T03:50:46;100075.03;;;6.19;61.15
50859;BME280;36826;47.514;19.056;2023-01-27T03:53:20;100073.38;;;6.42;60.11
50859;BME280;36826;47.514;19.056;2023-01-27T03:55:45;100071.53;;;6.42;61.11
50859;BME280;36826;47.514;19.056;2023-01-27T03:58:19;100063.94;;;6.25;60.03
50859;BME280;36826;47.514;19.056;2023-01-27T04:00:45;100061.50;;;6.46;60.40
50859;BME280;36826;47.514;19.056;2023-01-27T04:03:11;100060.75;;;6.20;60.67
50859;BME280;36826;47.514;19.056;2023-01-27T04:05:55;100047.59;;;6.67;59.98
50859;BME280;36826;47.514;19.056;2023-01-27T04:08:42;100052.88;;;6.55;59.75
50859;BME280;36826;47.514;19.056;2023-01-27T04:11:07;100053.63;;;6.20;59.90
50859;BME280;36826;47.514;19.056;2023-01-27T04:13:52;100054.56;;;6.32;59.97
50859;BME280;36826;47.514;19.056;2023-01-27T04:16:18;100057.34;;;6.18;60.01
50859;BME280;36826;47.514;19.056;2023-01-27T04:18:44;100055.13;;;6.49;59.82
50859;BME280;36826;47.514;19.056;2023-01-27T04:21:10;100054.56;;;6.32;59.80
50859;BME280;36826;47.514;19.056;2023-01-27T04:23:37;100055.88;;;6.13;59.81
50859;BME280;36826;47.514;19.056;2023-01-27T04:26:02;100049.34;;;6.55;60.10
50859;BME280;36826;47.514;19.056;2023-01-27T04:28:27;100056.16;;;6.59;59.49
50859;BME280;36826;47.514;19.056;2023-01-27T04:30:54;100066.03;;;6.33;59.16
50859;BME280;36826;47.514;19.056;2023-01-27T04:33:19;100060.91;;;6.05;60.38
50859;BME280;36826;47.514;19.056;2023-01-27T04:35:44;100059.53;;;5.87;60.73
50859;BME280;36826;47.514;19.056;2023-01-27T04:38:11;100059.72;;;5.96;60.37
50859;BME280;36826;47.514;19.056;2023-01-27T04:40:36;100065.00;;;6.22;59.92
50859;BME280;36826;47.514;19.056;2023-01-27T04:43:01;100067.56;;;6.24;59.65
50859;BME280;36826;47.514;19.056;2023-01-27T04:45:27;100064.28;;;5.94;60.07
50859;BME280;36826;47.514;19.056;2023-01-27T04:47:52;100063.84;;;6.13;60.25
50859;BME280;36826;47.514;19.056;2023-01-27T04:50:18;100064.91;;;6.24;59.94
50859;BME280;36826;47.514;19.056;2023-01-27T04:52:43;100073.69;;;5.48;60.48
50859;BME280;36826;47.514;19.056;2023-01-27T04:55:09;100075.38;;;6.01;59.80
50859;BME280;36826;47.514;19.056;2023-01-27T04:57:34;100076.56;;;6.34;59.41
50859;BME280;36826;47.514;19.056;2023-01-27T05:00:00;100077.38;;;5.97;59.89
50859;BME280;36826;47.514;19.056;2023-01-27T05:02:25;100082.25;;;6.17;60.13
50859;BME280;36826;47.514;19.056;2023-01-27T05:04:50;100086.34;;;5.83;60.18
50859;BME280;36826;47.514;19.056;2023-01-27T05:07:16;100083.13;;;6.04;59.97
50859;BME280;36826;47.514;19.056;2023-01-27T05:09:42;100077.97;;;6.27;60.03
50859;BME280;36826;47.514;19.056;2023-01-27T05:12:09;100081.63;;;6.26;59.41
50859;BME280;36826;47.514;19.056;2023-01-27T05:14:34;100076.75;;;5.94;59.88
50859;BME280;36826;47.514;19.056;2023-01-27T05:16:59;100076.34;;;5.61;60.44
50859;BME280;36826;47.514;19.056;2023-01-27T05:19:25;100073.78;;;5.86;60.39
50859;BME280;36826;47.514;19.056;2023-01-27T05:21:50;100066.72;;;6.23;60.13
50859;BME280;36826;47.514;19.056;2023-01-27T05:24:16;100064.94;;;6.11;59.79
50859;BME280;36826;47.514;19.056;2023-01-27T05:26:41;100062.81;;;6.16;59.81
50859;BME280;36826;47.514;19.056;2023-01-27T05:29:07;100066.63;;;6.25;60.01
50859;BME280;36826;47.514;19.056;2023-01-27T05:31:32;100069.38;;;5.97;60.07
50859;BME280;36826;47.514;19.056;2023-01-27T05:33:58;100065.66;;;6.26;59.50
50859;BME280;36826;47.514;19.056;2023-01-27T05:36:24;100065.19;;;6.32;59.10
50859;BME280;36826;47.514;19.056;2023-01-27T05:38:52;100069.41;;;6.48;59.28
50859;BME280;36826;47.514;19.056;2023-01-27T05:41:17;100063.63;;;6.54;59.31
50859;BME280;36826;47.514;19.056;2023-01-27T05:43:44;100070.56;;;6.43;58.83
50859;BME280;36826;47.514;19.056;2023-01-27T05:46:10;100069.63;;;6.44;59.26
50859;BME280;36826;47.514;19.056;2023-01-27T05:48:38;100069.41;;;6.48;58.49
50859;BME280;36826;47.514;19.056;2023-01-27T05:51:03;100069.34;;;6.60;58.37
50859;BME280;36826;47.514;19.056;2023-01-27T05:53:29;100074.84;;;6.70;58.51
50859;BME280;36826;47.514;19.056;2023-01-27T05:55:55;100073.56;;;6.52;58.16
50859;BME280;36826;47.514;19.056;2023-01-27T05:58:20;100072.50;;;6.41;58.12
50859;BME280;36826;47.514;19.056;2023-01-27T06:00:46;100076.44;;;6.49;57.44
50859;BME280;36826;47.514;19.056;2023-01-27T06:03:12;100063.00;;;6.74;57.77
50859;BME280;36826;47.514;19.056;2023-01-27T06:05:37;100072.81;;;6.50;57.25
50859;BME280;36826;47.514;19.056;2023-01-27T06:08:03;100066.59;;;6.62;57.38
50859;BME280;36826;47.514;19.056;2023-01-27T06:10:28;100074.66;;;6.36;57.53
50859;BME280;36826;47.514;19.056;2023-01-27T06:12:53;100067.09;;;6.43;56.99
50859;BME280;36826;47.514;19.056;2023-01-27T06:15:19;100055.88;;;6.51;57.00
50859;BME280;36826;47.514;19.056;2023-01-27T06:17:44;100057.38;;;6.66;56.76
50859;BME280;36826;47.514;19.056;2023-01-27T06:20:10;100056.38;;;6.56;55.93
50859;BME280;36826;47.514;19.056;2023-01-27T06:22:35;100061.13;;;6.39;55.66
50859;BME280;36826;47.514;19.056;2023-01-27T06:25:00;100058.56;;;6.38;55.75
50859;BME280;36826;47.514;19.056;2023-01-27T06:27:26;100061.34;;;6.36;55.02
50859;BME280;36826;47.514;19.056;2023-01-27T06:29:51;100059.44;;;6.63;55.36
50859;BME280;36826;47.514;19.056;2023-01-27T06:32:16;100061.78;;;6.79;55.00
50859;BME280;36826;47.514;19.056;2023-01-27T06:34:46;100058.81;;;6.59;54.05
50859;BME280;36826;47.514;19.056;2023-01-27T06:37:11;100063.63;;;6.54;54.32
50859;BME280;36826;47.514;19.056;2023-01-27T06:39:36;100070.38;;;6.47;54.19
50859;BME280;36826;47.514;19.056;2023-01-27T06:42:02;100060.66;;;6.94;54.06
50859;BME280;36826;47.514;19.056;2023-01-27T06:44:28;100061.91;;;6.77;53.50
50859;BME280;36826;47.514;19.056;2023-01-27T06:46:54;100066.78;;;7.19;53.23
50859;BME280;36826;47.514;19.056;2023-01-27T06:49:20;100069.47;;;6.83;52.33
50859;BME280;36826;47.514;19.056;2023-01-27T06:51:45;100069.78;;;7.14;52.64
50859;BME280;36826;47.514;19.056;2023-01-27T06:54:11;100069.69;;;7.16;52.07
50859;BME280;36826;47.514;19.056;2023-01-27T06:56:36;100079.03;;;6.86;52.20
50859;BME280;36826;47.514;19.056;2023-01-27T06:59:01;100075.78;;;6.94;51.61
50859;BME280;36826;47.514;19.056;2023-01-27T07:01:27;100071.91;;;6.98;51.23
50859;BME280;36826;47.514;19.056;2023-01-27T07:03:52;100075.97;;;7.03;51.51
50859;BME280;36826;47.514;19.056;2023-01-27T07:06:17;100068.69;;;7.05;51.72
50859;BME280;36826;47.514;19.056;2023-01-27T07:08:44;100063.19;;;7.31;50.77
50859;BME280;36826;47.514;19.056;2023-01-27T07:11:12;100072.53;;;6.90;50.63
50859;BME280;36826;47.514;19.056;2023-01-27T07:13:37;100062.25;;;6.72;50.81
50859;BME280;36826;47.514;19.056;2023-01-27T07:16:02;100068.06;;;7.02;51.21
50859;BME280;36826;47.514;19.056;2023-01-27T07:18:28;100068.81;;;6.80;51.44
50859;BME280;36826;47.514;19.056;2023-01-27T07:20:53;100073.84;;;7.31;50.43
50859;BME280;36826;47.514;19.056;2023-01-27T07:23:18;100083.59;;;7.08;50.63
50859;BME280;36826;47.514;19.056;2023-01-27T07:25:44;100083.31;;;7.47;50.30
50859;BME280;36826;47.514;19.056;2023-01-27T07:28:09;100088.06;;;7.07;50.92
50859;BME280;36826;47.514;19.056;2023-01-27T07:30:34;100089.31;;;7.15;51.03
50859;BME280;36826;47.514;19.056;2023-01-27T07:33:05;100082.97;;;7.51;50.54
50859;BME280;36826;47.514;19.056;2023-01-27T07:35:30;100090.53;;;7.22;51.05
50859;BME280;36826;47.514;19.056;2023-01-27T07:37:56;100086.59;;;7.50;50.46
50859;BME280;36826;47.514;19.056;2023-01-27T07:40:21;100091.53;;;7.44;50.66
50859;BME280;36826;47.514;19.056;2023-01-27T07:42:47;100078.69;;;7.26;50.99
50859;BME280;36826;47.514;19.056;2023-01-27T07:45:12;100076.66;;;7.52;50.88
50859;BME280;36826;47.514;19.056;2023-01-27T07:47:38;100073.97;;;7.30;51.38
50859;BME280;36826;47.514;19.056;2023-01-27T07:50:04;100074.97;;;7.04;51.36
50859;BME280;36826;47.514;19.056;2023-01-27T07:52:29;100067.13;;;7.61;50.82
50859;BME280;36826;47.514;19.056;2023-01-27T07:54:55;100065.53;;;7.59;50.40
50859;BME280;36826;47.514;19.056;2023-01-27T07:57:20;100071.72;;;7.82;50.46
50859;BME280;36826;47.514;19.056;2023-01-27T07:59:45;100067.06;;;7.27;50.47
50859;BME280;36826;47.514;19.056;2023-01-27T08:02:10;100071.69;;;7.36;51.18
50859;BME280;36826;47.514;19.056;2023-01-27T08:04:36;100074.50;;;7.58;50.16
50859;BME280;36826;47.514;19.056;2023-01-27T08:07:01;100073.69;;;7.91;50.03
50859;BME280;36826;47.514;19.056;2023-01-27T08:09:26;100071.47;;;7.85;49.96
50859;BME280;36826;47.514;19.056;2023-01-27T08:11:52;100078.50;;;8.09;49.54
50859;BME280;36826;47.514;19.056;2023-01-27T08:14:17;100084.56;;;8.11;49.59
50859;BME280;36826;47.514;19.056;2023-01-27T08:16:42;100084.78;;;7.51;50.56
50859;BME280;36826;47.514;19.056;2023-01-27T08:19:08;100078.97;;;7.57;49.69
50859;BME280;36826;47.514;19.056;2023-01-27T08:21:33;100082.41;;;8.05;49.82
50859;BME280;36826;47.514;19.056;2023-01-27T08:23:59;100077.66;;;8.08;49.28
50859;BME280;36826;47.514;19.056;2023-01-27T08:26:24;100085.63;;;7.63;49.45
50859;BME280;36826;47.514;19.056;2023-01-27T08:28:50;100090.78;;;8.00;49.14
50859;BME280;36826;47.514;19.056;2023-01-27T08:31:17;100089.91;;;7.77;49.19
50859;BME280;36826;47.514;19.056;2023-01-27T08:33:44;100083.44;;;7.45;49.56
50859;BME280;36826;47.514;19.056;2023-01-27T08:36:13;100083.09;;;7.50;50.15
50859;BME280;36826;47.514;19.056;2023-01-27T08:38:40;100083.09;;;7.61;49.59
50859;BME280;36826;47.514;19.056;2023-01-27T08:41:06;100086.34;;;7.42;50.00
50859;BME280;36826;47.514;19.056;2023-01-27T08:43:32;100088.75;;;7.34;50.21
50859;BME280;36826;47.514;19.056;2023-01-27T08:45:58;100091.09;;;7.14;50.40
50859;BME280;36826;47.514;19.056;2023-01-27T08:48:25;100091.81;;;6.81;51.25
50859;BME280;36826;47.514;19.056;2023-01-27T08:50:54;100101.41;;;7.19;50.61
50859;BME280;36826;47.514;19.056;2023-01-27T08:53:21;100103.13;;;6.10;52.55
50859;BME280;36826;47.514;19.056;2023-01-27T08:55:47;100101.81;;;6.90;52.09
50859;BME280;36826;47.514;19.056;2023-01-27T08:58:12;100095.50;;;7.27;50.69
50859;BME280;36826;47.514;19.056;2023-01-27T09:00:38;100103.31;;;7.52;50.75
50859;BME280;36826;47.514;19.056;2023-01-27T09:03:03;100100.56;;;7.18;50.30
50859;BME280;36826;47.514;19.056;2023-01-27T09:05:29;100100.63;;;6.70;50.93
50859;BME280;36826;47.514;19.056;2023-01-27T09:07:54;100101.00;;;7.48;50.21
50859;BME280;36826;47.514;19.056;2023-01-27T09:10:19;100107.28;;;7.35;50.38
50859;BME280;36826;47.514;19.056;2023-01-27T09:12:45;100103.34;;;8.32;49.59
50859;BME280;36826;47.514;19.056;2023-01-27T09:15:12;100104.19;;;7.64;49.62
50859;BME280;36826;47.514;19.056;2023-01-27T09:17:38;100105.91;;;8.45;48.72
50859;BME280;36826;47.514;19.056;2023-01-27T09:20:04;100111.09;;;7.67;49.53
50859;BME280;36826;47.514;19.056;2023-01-27T09:22:29;100101.06;;;6.88;50.70
50859;BME280;36826;47.514;19.056;2023-01-27T09:24:55;100109.34;;;7.32;50.12
50859;BME280;36826;47.514;19.056;2023-01-27T09:27:20;100109.31;;;7.20;49.84
50859;BME280;36826;47.514;19.056;2023-01-27T09:29:45;100117.56;;;6.19;51.52
50859;BME280;36826;47.514;19.056;2023-01-27T09:32:11;100104.34;;;6.30;51.45
50859;BME280;36826;47.514;19.056;2023-01-27T09:34:37;100111.75;;;6.01;51.48
50859;BME280;36826;47.514;19.056;2023-01-27T09:37:04;100113.91;;;6.45;51.59
50859;BME280;36826;47.514;19.056;2023-01-27T09:39:31;100118.41;;;6.32;51.47
50859;BME280;36826;47.514;19.056;2023-01-27T09:52:53;100113.91;;;6.33;53.55
50859;BME280;36826;47.514;19.056;2023-01-27T10:03:04;100109.38;;;6.59;54.96
50859;BME280;36826;47.514;19.056;2023-01-27T10:08:10;100113.00;;;6.21;56.48
50859;BME280;36826;47.514;19.056;2023-01-27T10:10:50;100106.78;;;6.70;55.50
50859;BME280;36826;47.514;19.056;2023-01-27T10:28:17;100105.13;;;7.05;56.31
50859;BME280;36826;47.514;19.056;2023-01-27T10:33:20;100109.53;;;6.44;58.33
50859;BME280;36826;47.514;19.056;2023-01-27T10:35:50;100100.13;;;6.14;58.75
50859;BME280;36826;47.514;19.056;2023-01-27T10:38:19;100108.97;;;7.01;56.81
50859;BME280;36826;47.514;19.056;2023-01-27T10:43:32;100111.63;;;6.15;59.38
50859;BME280;36826;47.514;19.056;2023-01-27T10:46:06;100092.88;;;6.54;57.93
50859;BME280;36826;47.514;19.056;2023-01-27T10:51:25;100102.63;;;7.15;56.59
50859;BME280;36826;47.514;19.056;2023-01-27T10:54:28;100101.94;;;6.64;57.81
50859;BME280;36826;47.514;19.056;2023-01-27T10:56:49;100093.13;;;6.51;58.39
50859;BME280;36826;47.514;19.056;2023-01-27T11:01:52;100095.94;;;7.09;58.48
50859;BME280;36826;47.514;19.056;2023-01-27T11:06:54;100097.19;;;6.06;61.50
50859;BME280;36826;47.514;19.056;2023-01-27T11:09:30;100086.66;;;6.90;59.43
50859;BME280;36826;47.514;19.056;2023-01-27T11:11:57;100085.03;;;7.71;58.79
50859;BME280;36826;47.514;19.056;2023-01-27T11:14:47;100083.06;;;7.39;59.68
50859;BME280;36826;47.514;19.056;2023-01-27T11:22:20;100071.72;;;7.59;60.49
50859;BME280;36826;47.514;19.056;2023-01-27T11:25:42;100078.13;;;6.50;64.18
50859;BME280;36826;47.514;19.056;2023-01-27T11:30:31;100076.91;;;7.02;63.86
50859;BME280;36826;47.514;19.056;2023-01-27T11:33:08;100080.59;;;7.13;65.48
50859;BME280;36826;47.514;19.056;2023-01-27T11:35:35;100078.88;;;7.70;64.70
50859;BME280;36826;47.514;19.056;2023-01-27T11:38:01;100071.09;;;7.56;63.82
50859;BME280;36826;47.514;19.056;2023-01-27T11:40:34;100059.09;;;6.67;66.77
50859;BME280;36826;47.514;19.056;2023-01-27T11:43:02;100059.47;;;6.98;66.24
50859;BME280;36826;47.514;19.056;2023-01-27T11:45:31;100061.97;;;7.35;66.27
50859;BME280;36826;47.514;19.056;2023-01-27T11:47:59;100059.03;;;7.16;66.11
50859;BME280;36826;47.514;19.056;2023-01-27T11:50:29;100057.72;;;7.21;67.04
50859;BME280;36826;47.514;19.056;2023-01-27T11:55:40;100047.28;;;7.07;67.27
50859;BME280;36826;47.514;19.056;2023-01-27T12:00:34;100043.06;;;5.68;72.26
50859;BME280;36826;47.514;19.056;2023-01-27T12:03:05;100035.25;;;6.04;72.05
50859;BME280;36826;47.514;19.056;2023-01-27T12:05:40;100034.47;;;6.77;70.59
50859;BME280;36826;47.514;19.056;2023-01-27T12:08:06;100032.63;;;6.53;69.74
50859;BME280;36826;47.514;19.056;2023-01-27T12:10:33;100033.22;;;6.21;71.16
50859;BME280;36826;47.514;19.056;2023-01-27T12:13:15;100033.25;;;7.16;68.65
50859;BME280;36826;47.514;19.056;2023-01-27T12:15:46;100037.56;;;7.64;68.62
50859;BME280;36826;47.514;19.056;2023-01-27T12:18:13;100026.63;;;7.90;68.13
50859;BME280;36826;47.514;19.056;2023-01-27T12:20:43;100019.72;;;7.76;69.43
50859;BME280;36826;47.514;19.056;2023-01-27T12:23:19;100022.75;;;7.72;67.76
50859;BME280;36826;47.514;19.056;2023-01-27T12:25:47;100012.66;;;8.21;66.28
50859;BME280;36826;47.514;19.056;2023-01-27T12:30:53;100013.50;;;7.30;67.61
50859;BME280;36826;47.514;19.056;2023-01-27T12:33:28;100006.13;;;8.46;67.01
50859;BME280;36826;47.514;19.056;2023-01-27T12:35:58;100010.00;;;6.47;73.28
50859;BME280;36826;47.514;19.056;2023-01-27T12:38:26;100006.28;;;7.55;70.48
50859;BME280;36826;47.514;19.056;2023-01-27T12:40:55;100002.41;;;7.48;70.30
50859;BME280;36826;47.514;19.056;2023-01-27T12:43:22;100013.38;;;7.09;71.91
50859;BME280;36826;47.514;19.056;2023-01-27T12:48:32;100007.41;;;8.31;68.96
50859;BME280;36826;47.514;19.056;2023-01-27T12:51:14;100008.78;;;8.02;68.82
50859;BME280;36826;47.514;19.056;2023-01-27T12:53:40;100003.16;;;8.28;68.98
50859;BME280;36826;47.514;19.056;2023-01-27T12:58:43;100005.31;;;7.90;69.46
50859;BME280;36826;47.514;19.056;2023-01-27T13:01:28;100003.72;;;7.76;70.08
50859;BME280;36826;47.514;19.056;2023-01-27T13:04:02;99999.41;;;6.94;71.75
50859;BME280;36826;47.514;19.056;2023-01-27T13:06:40;100007.50;;;7.74;71.42
50859;BME280;36826;47.514;19.056;2023-01-27T13:11:45;100001.63;;;6.40;74.89
50859;BME280;36826;47.514;19.056;2023-01-27T13:14:14;100009.88;;;6.24;75.74
50859;BME280;36826;47.514;19.056;2023-01-27T13:16:40;100013.91;;;6.06;75.99
50859;BME280;36826;47.514;19.056;2023-01-27T13:19:13;100019.56;;;5.49;79.25
50859;BME280;36826;47.514;19.056;2023-01-27T13:21:39;100032.72;;;6.64;78.11
50859;BME280;36826;47.514;19.056;2023-01-27T13:24:09;100021.00;;;7.02;75.84
50859;BME280;36826;47.514;19.056;2023-01-27T13:26:36;100033.00;;;5.35;78.55
50859;BME280;36826;47.514;19.056;2023-01-27T13:29:11;100031.69;;;5.53;80.28
50859;BME280;36826;47.514;19.056;2023-01-27T13:36:55;100029.00;;;6.05;78.79
50859;BME280;36826;47.514;19.056;2023-01-27T13:45:22;100021.75;;;7.95;73.16
50859;BME280;36826;47.514;19.056;2023-01-27T13:47:52;100030.69;;;8.28;71.10
50859;BME280;36826;47.514;19.056;2023-01-27T13:50:27;100041.84;;;6.84;74.18
50859;BME280;36826;47.514;19.056;2023-01-27T13:52:55;100035.81;;;6.09;77.73
50859;BME280;36826;47.514;19.056;2023-01-27T13:55:27;100032.91;;;7.32;75.85
50859;BME280;36826;47.514;19.056;2023-01-27T13:58:40;100035.09;;;7.95;73.41
50859;BME280;36826;47.514;19.056;2023-01-27T14:03:27;100027.03;;;8.52;70.26
50859;BME280;36826;47.514;19.056;2023-01-27T14:11:19;100030.88;;;7.70;71.04
50859;BME280;36826;47.514;19.056;2023-01-27T14:22:08;100021.06;;;7.82;71.71
50859;BME280;36826;47.514;19.056;2023-01-27T14:27:11;100028.22;;;6.40;75.62
50859;BME280;36826;47.514;19.056;2023-01-27T14:29:46;100034.44;;;7.24;75.49
50859;BME280;36826;47.514;19.056;2023-01-27T14:37:10;100025.41;;;6.31;75.94
50859;BME280;36826;47.514;19.056;2023-01-27T14:42:40;100023.22;;;7.43;74.00
50859;BME280;36826;47.514;19.056;2023-01-27T14:45:11;100027.22;;;7.37;76.02
50859;BME280;36826;47.514;19.056;2023-01-27T14:55:06;100018.16;;;7.74;73.62
50859;BME280;36826;47.514;19.056;2023-01-27T15:00:14;100022.91;;;7.00;74.32
50859;BME280;36826;47.514;19.056;2023-01-27T15:02:43;100015.66;;;6.67;74.90
50859;BME280;36826;47.514;19.056;2023-01-27T15:05:17;100023.34;;;6.83;73.90